Terminal Aerodrome Forecast
Issued by NWS

Home | Current Version | Previous Version | Text Only | Print | Product List | Glossary On
Versions: 1 2 3 4 5 6 7 8 9 10 11 12 13 14
000
FTUS45 KMSO 261126
TAFSMN
TAF
KSMN 261126Z 2612/2712 VRB03KT P6SM VCSH BKN020 OVC040
     FM261400 01008KT P6SM VCSH BKN030 OVC050
     FM261800 01012KT P6SM OVC050
     FM270300 VRB04KT P6SM SCT060
     FM271000 VRB03KT 6SM BR SCT001
      AMD LTD TO CLD VIS AND WIND=

USA.gov is the U.S. government's official web portal to all federal, state and local government web resources and services.